aviador You're here:

KGKJ Decoded Metar

MEADVILLE in PA, USA
Report Time2017-04-28 08:04:00
UTC Time2017-04-28 08:11:25
Flight Rules mvfr MVFR
Wind210° at 04 kt
W.Decomp.*RWY 25: 3.4 kt HW 2.1 kt LCW
W.Rank210° ranks 3
Current wind is below 210° avg. (7.2)
Visibility9999 m
Phenomena:N/A
Clouds:Broken 027 Hf
Expected CloudBase > 800 ft AGL from Temp-Dew spread
Ceiling2,700 ft
Temp08°C (ISA -4)
Dew Point06°C (87% RH)
AAT5.6°C
QNH1014 hPa
Density Alt997 ft
Elevation1,404 ft
Report Wrong Elevation
Raw Report
KGKJ 280804Z AUTO 21004KT 10SM BKN027 08/06 A2995 RMK AO2
T00830056 TSNO=

Extra information for KGKJ:More info

Metar Taf Metar & Taf Last 4 Metars F.Rules Stats Wind Profile Meteogram Temp Stats Airport Information Weather charts Add Link Nearby VenuesMetar ALERT Operation Metar Decoded Social comments

AIRNAV info for KGKJ